sensor_id;sensor_type;location;lat;lon;timestamp;P1;durP1;ratioP1;P2;durP2;ratioP2
3849;SDS011;1940;51.052;13.678;2023-04-03T00:01:18;2.80;;;1.40;;
3849;SDS011;1940;51.052;13.678;2023-04-03T00:03:44;2.13;;;1.10;;
3849;SDS011;1940;51.052;13.678;2023-04-03T00:06:10;5.57;;;1.70;;
3849;SDS011;1940;51.052;13.678;2023-04-03T00:08:36;7.07;;;1.73;;
3849;SDS011;1940;51.052;13.678;2023-04-03T00:11:03;3.13;;;1.60;;
3849;SDS011;1940;51.052;13.678;2023-04-03T00:13:29;1.90;;;1.27;;
3849;SDS011;1940;51.052;13.678;2023-04-03T00:15:55;5.30;;;1.77;;
3849;SDS011;1940;51.052;13.678;2023-04-03T00:18:21;3.57;;;1.50;;
3849;SDS011;1940;51.052;13.678;2023-04-03T00:20:47;1.90;;;1.30;;
3849;SDS011;1940;51.052;13.678;2023-04-03T00:23:13;4.97;;;1.60;;
3849;SDS011;1940;51.052;13.678;2023-04-03T00:25:39;3.90;;;1.47;;
3849;SDS011;1940;51.052;13.678;2023-04-03T00:28:05;3.83;;;1.40;;
3849;SDS011;1940;51.052;13.678;2023-04-03T00:30:31;2.10;;;1.37;;
3849;SDS011;1940;51.052;13.678;2023-04-03T00:32:57;1.60;;;1.23;;
3849;SDS011;1940;51.052;13.678;2023-04-03T00:35:23;2.80;;;1.33;;
3849;SDS011;1940;51.052;13.678;2023-04-03T00:37:52;3.60;;;1.67;;
3849;SDS011;1940;51.052;13.678;2023-04-03T00:40:19;4.43;;;1.43;;
3849;SDS011;1940;51.052;13.678;2023-04-03T00:42:46;3.63;;;1.40;;
3849;SDS011;1940;51.052;13.678;2023-04-03T00:45:27;2.37;;;1.20;;
3849;SDS011;1940;51.052;13.678;2023-04-03T00:47:54;3.60;;;1.30;;
3849;SDS011;1940;51.052;13.678;2023-04-03T00:50:21;2.50;;;1.47;;
3849;SDS011;1940;51.052;13.678;2023-04-03T00:52:47;2.40;;;1.30;;
3849;SDS011;1940;51.052;13.678;2023-04-03T00:55:14;1.43;;;1.10;;
3849;SDS011;1940;51.052;13.678;2023-04-03T00:57:40;3.80;;;1.57;;
3849;SDS011;1940;51.052;13.678;2023-04-03T01:00:08;1.53;;;1.20;;
3849;SDS011;1940;51.052;13.678;2023-04-03T01:02:36;5.53;;;2.10;;
3849;SDS011;1940;51.052;13.678;2023-04-03T01:05:02;3.87;;;1.50;;
3849;SDS011;1940;51.052;13.678;2023-04-03T01:07:29;2.60;;;1.53;;
3849;SDS011;1940;51.052;13.678;2023-04-03T01:09:56;3.37;;;1.53;;
3849;SDS011;1940;51.052;13.678;2023-04-03T01:14:55;3.57;;;1.40;;
3849;SDS011;1940;51.052;13.678;2023-04-03T01:20:15;6.27;;;1.70;;
3849;SDS011;1940;51.052;13.678;2023-04-03T01:25:50;3.60;;;1.73;;
3849;SDS011;1940;51.052;13.678;2023-04-03T01:28:50;1.40;;;1.10;;
3849;SDS011;1940;51.052;13.678;2023-04-03T01:31:25;3.13;;;1.40;;
3849;SDS011;1940;51.052;13.678;2023-04-03T01:33:53;1.83;;;1.20;;
3849;SDS011;1940;51.052;13.678;2023-04-03T01:36:21;3.57;;;1.57;;
3849;SDS011;1940;51.052;13.678;2023-04-03T01:38:49;2.20;;;1.50;;
3849;SDS011;1940;51.052;13.678;2023-04-03T01:41:15;3.80;;;1.60;;
3849;SDS011;1940;51.052;13.678;2023-04-03T01:43:41;5.63;;;1.30;;
3849;SDS011;1940;51.052;13.678;2023-04-03T01:46:06;4.40;;;1.73;;
3849;SDS011;1940;51.052;13.678;2023-04-03T01:48:32;9.37;;;1.77;;
3849;SDS011;1940;51.052;13.678;2023-04-03T01:50:58;2.40;;;1.20;;
3849;SDS011;1940;51.052;13.678;2023-04-03T01:53:23;3.73;;;1.60;;
3849;SDS011;1940;51.052;13.678;2023-04-03T01:55:49;2.40;;;1.40;;
3849;SDS011;1940;51.052;13.678;2023-04-03T01:58:15;4.80;;;1.70;;
3849;SDS011;1940;51.052;13.678;2023-04-03T02:00:41;7.50;;;1.77;;
3849;SDS011;1940;51.052;13.678;2023-04-03T02:03:06;1.50;;;1.40;;
3849;SDS011;1940;51.052;13.678;2023-04-03T02:05:32;5.80;;;1.90;;
3849;SDS011;1940;51.052;13.678;2023-04-03T02:07:57;2.50;;;1.53;;
3849;SDS011;1940;51.052;13.678;2023-04-03T02:10:23;5.43;;;1.10;;
3849;SDS011;1940;51.052;13.678;2023-04-03T02:12:49;3.97;;;1.63;;
3849;SDS011;1940;51.052;13.678;2023-04-03T02:15:14;4.60;;;1.60;;
3849;SDS011;1940;51.052;13.678;2023-04-03T02:17:40;5.47;;;1.70;;
3849;SDS011;1940;51.052;13.678;2023-04-03T02:20:06;2.63;;;1.37;;
3849;SDS011;1940;51.052;13.678;2023-04-03T02:22:32;3.67;;;1.80;;
3849;SDS011;1940;51.052;13.678;2023-04-03T02:24:57;2.73;;;1.60;;
3849;SDS011;1940;51.052;13.678;2023-04-03T02:27:23;3.03;;;1.33;;
3849;SDS011;1940;51.052;13.678;2023-04-03T02:29:48;4.20;;;1.53;;
3849;SDS011;1940;51.052;13.678;2023-04-03T02:32:14;3.90;;;1.47;;
3849;SDS011;1940;51.052;13.678;2023-04-03T02:34:39;2.93;;;1.33;;
3849;SDS011;1940;51.052;13.678;2023-04-03T02:37:05;3.73;;;1.73;;
3849;SDS011;1940;51.052;13.678;2023-04-03T02:39:31;2.30;;;1.23;;
3849;SDS011;1940;51.052;13.678;2023-04-03T02:41:56;4.27;;;1.40;;
3849;SDS011;1940;51.052;13.678;2023-04-03T02:44:22;1.53;;;1.43;;
3849;SDS011;1940;51.052;13.678;2023-04-03T02:46:48;2.80;;;1.10;;
3849;SDS011;1940;51.052;13.678;2023-04-03T02:49:14;1.53;;;1.00;;
3849;SDS011;1940;51.052;13.678;2023-04-03T02:51:40;1.67;;;1.33;;
3849;SDS011;1940;51.052;13.678;2023-04-03T02:54:06;4.47;;;1.77;;
3849;SDS011;1940;51.052;13.678;2023-04-03T02:56:31;4.00;;;1.60;;
3849;SDS011;1940;51.052;13.678;2023-04-03T02:58:57;2.60;;;1.53;;
3849;SDS011;1940;51.052;13.678;2023-04-03T03:01:22;2.00;;;1.37;;
3849;SDS011;1940;51.052;13.678;2023-04-03T03:03:48;2.00;;;1.27;;
3849;SDS011;1940;51.052;13.678;2023-04-03T03:06:14;4.07;;;1.40;;
3849;SDS011;1940;51.052;13.678;2023-04-03T03:08:41;3.57;;;1.47;;
3849;SDS011;1940;51.052;13.678;2023-04-03T03:11:07;3.10;;;1.67;;
3849;SDS011;1940;51.052;13.678;2023-04-03T03:13:33;4.60;;;1.60;;
3849;SDS011;1940;51.052;13.678;2023-04-03T03:15:58;2.40;;;1.50;;
3849;SDS011;1940;51.052;13.678;2023-04-03T03:18:25;3.90;;;1.67;;
3849;SDS011;1940;51.052;13.678;2023-04-03T03:20:51;3.27;;;1.33;;
3849;SDS011;1940;51.052;13.678;2023-04-03T03:23:18;8.03;;;1.30;;
3849;SDS011;1940;51.052;13.678;2023-04-03T03:25:43;3.23;;;1.63;;
3849;SDS011;1940;51.052;13.678;2023-04-03T03:28:09;2.90;;;1.53;;
3849;SDS011;1940;51.052;13.678;2023-04-03T03:30:34;3.30;;;1.87;;
3849;SDS011;1940;51.052;13.678;2023-04-03T03:33:00;2.33;;;1.40;;
3849;SDS011;1940;51.052;13.678;2023-04-03T03:35:26;9.67;;;2.70;;
3849;SDS011;1940;51.052;13.678;2023-04-03T03:37:52;2.53;;;1.43;;
3849;SDS011;1940;51.052;13.678;2023-04-03T03:40:17;5.83;;;2.00;;
3849;SDS011;1940;51.052;13.678;2023-04-03T03:42:42;4.97;;;1.60;;
3849;SDS011;1940;51.052;13.678;2023-04-03T03:45:08;3.60;;;1.67;;
3849;SDS011;1940;51.052;13.678;2023-04-03T03:47:34;3.63;;;1.57;;
3849;SDS011;1940;51.052;13.678;2023-04-03T03:50:00;3.77;;;1.67;;
3849;SDS011;1940;51.052;13.678;2023-04-03T03:52:26;4.83;;;2.20;;
3849;SDS011;1940;51.052;13.678;2023-04-03T03:54:51;2.37;;;1.63;;
3849;SDS011;1940;51.052;13.678;2023-04-03T03:57:17;6.47;;;2.17;;
3849;SDS011;1940;51.052;13.678;2023-04-03T03:59:42;3.87;;;1.97;;
3849;SDS011;1940;51.052;13.678;2023-04-03T04:02:09;4.67;;;1.57;;
3849;SDS011;1940;51.052;13.678;2023-04-03T04:04:35;3.53;;;1.63;;
3849;SDS011;1940;51.052;13.678;2023-04-03T04:07:01;8.33;;;1.47;;
3849;SDS011;1940;51.052;13.678;2023-04-03T04:09:26;2.50;;;1.47;;
3849;SDS011;1940;51.052;13.678;2023-04-03T04:11:52;6.60;;;1.50;;
3849;SDS011;1940;51.052;13.678;2023-04-03T04:14:18;15.90;;;2.40;;
3849;SDS011;1940;51.052;13.678;2023-04-03T04:16:45;1.90;;;1.40;;
3849;SDS011;1940;51.052;13.678;2023-04-03T04:19:11;2.37;;;1.50;;
3849;SDS011;1940;51.052;13.678;2023-04-03T04:21:37;2.60;;;1.40;;
3849;SDS011;1940;51.052;13.678;2023-04-03T04:24:12;5.37;;;1.80;;
3849;SDS011;1940;51.052;13.678;2023-04-03T04:26:38;6.13;;;1.93;;
3849;SDS011;1940;51.052;13.678;2023-04-03T04:29:04;3.73;;;1.60;;
3849;SDS011;1940;51.052;13.678;2023-04-03T04:31:29;3.43;;;1.30;;
3849;SDS011;1940;51.052;13.678;2023-04-03T04:33:55;1.67;;;1.57;;
3849;SDS011;1940;51.052;13.678;2023-04-03T04:36:20;2.00;;;1.50;;
3849;SDS011;1940;51.052;13.678;2023-04-03T04:38:46;5.40;;;1.50;;
3849;SDS011;1940;51.052;13.678;2023-04-03T04:41:11;4.57;;;1.77;;
3849;SDS011;1940;51.052;13.678;2023-04-03T04:43:37;3.80;;;1.70;;
3849;SDS011;1940;51.052;13.678;2023-04-03T04:46:03;5.93;;;1.50;;
3849;SDS011;1940;51.052;13.678;2023-04-03T04:48:34;1.57;;;1.43;;
3849;SDS011;1940;51.052;13.678;2023-04-03T04:50:59;3.00;;;1.73;;
3849;SDS011;1940;51.052;13.678;2023-04-03T04:53:25;3.70;;;1.77;;
3849;SDS011;1940;51.052;13.678;2023-04-03T04:55:51;3.13;;;1.57;;
3849;SDS011;1940;51.052;13.678;2023-04-03T04:58:17;2.43;;;1.50;;
3849;SDS011;1940;51.052;13.678;2023-04-03T05:00:43;5.40;;;1.50;;
3849;SDS011;1940;51.052;13.678;2023-04-03T05:03:09;3.90;;;2.07;;
3849;SDS011;1940;51.052;13.678;2023-04-03T05:05:35;7.80;;;1.87;;
3849;SDS011;1940;51.052;13.678;2023-04-03T05:08:01;4.70;;;1.60;;
3849;SDS011;1940;51.052;13.678;2023-04-03T05:10:27;1.77;;;1.30;;
3849;SDS011;1940;51.052;13.678;2023-04-03T05:12:53;3.63;;;1.43;;
3849;SDS011;1940;51.052;13.678;2023-04-03T05:15:18;2.73;;;1.40;;
3849;SDS011;1940;51.052;13.678;2023-04-03T05:17:44;12.30;;;2.13;;
3849;SDS011;1940;51.052;13.678;2023-04-03T05:20:10;2.40;;;1.40;;
3849;SDS011;1940;51.052;13.678;2023-04-03T05:22:36;4.00;;;1.53;;
3849;SDS011;1940;51.052;13.678;2023-04-03T05:25:01;2.33;;;1.90;;
3849;SDS011;1940;51.052;13.678;2023-04-03T05:27:27;5.43;;;1.70;;
3849;SDS011;1940;51.052;13.678;2023-04-03T05:29:53;2.63;;;1.80;;
3849;SDS011;1940;51.052;13.678;2023-04-03T05:32:19;4.27;;;1.80;;
3849;SDS011;1940;51.052;13.678;2023-04-03T05:34:45;4.60;;;1.97;;
3849;SDS011;1940;51.052;13.678;2023-04-03T05:37:11;11.47;;;1.80;;
3849;SDS011;1940;51.052;13.678;2023-04-03T05:39:36;4.10;;;1.63;;
3849;SDS011;1940;51.052;13.678;2023-04-03T05:42:05;10.63;;;1.83;;
3849;SDS011;1940;51.052;13.678;2023-04-03T05:44:30;5.53;;;2.00;;
3849;SDS011;1940;51.052;13.678;2023-04-03T05:46:56;3.70;;;1.90;;
3849;SDS011;1940;51.052;13.678;2023-04-03T05:49:21;3.93;;;1.97;;
3849;SDS011;1940;51.052;13.678;2023-04-03T05:51:47;4.73;;;2.03;;
3849;SDS011;1940;51.052;13.678;2023-04-03T05:54:13;5.03;;;2.03;;
3849;SDS011;1940;51.052;13.678;2023-04-03T05:56:43;4.07;;;2.00;;
3849;SDS011;1940;51.052;13.678;2023-04-03T05:59:09;5.83;;;2.03;;
3849;SDS011;1940;51.052;13.678;2023-04-03T06:01:34;2.83;;;1.53;;
3849;SDS011;1940;51.052;13.678;2023-04-03T06:04:00;3.63;;;1.47;;
3849;SDS011;1940;51.052;13.678;2023-04-03T06:06:25;2.50;;;1.43;;
3849;SDS011;1940;51.052;13.678;2023-04-03T06:08:51;5.63;;;2.57;;
3849;SDS011;1940;51.052;13.678;2023-04-03T06:11:17;3.30;;;1.50;;
3849;SDS011;1940;51.052;13.678;2023-04-03T06:13:42;3.00;;;1.90;;
3849;SDS011;1940;51.052;13.678;2023-04-03T06:16:14;4.17;;;1.60;;
3849;SDS011;1940;51.052;13.678;2023-04-03T06:18:42;7.20;;;2.00;;
3849;SDS011;1940;51.052;13.678;2023-04-03T06:21:07;5.40;;;1.83;;
3849;SDS011;1940;51.052;13.678;2023-04-03T06:23:33;12.10;;;1.90;;
3849;SDS011;1940;51.052;13.678;2023-04-03T06:25:58;2.57;;;1.60;;
3849;SDS011;1940;51.052;13.678;2023-04-03T06:28:25;2.27;;;1.67;;
3849;SDS011;1940;51.052;13.678;2023-04-03T06:30:50;3.00;;;1.83;;
3849;SDS011;1940;51.052;13.678;2023-04-03T06:33:16;2.30;;;1.60;;
3849;SDS011;1940;51.052;13.678;2023-04-03T06:35:42;6.63;;;1.80;;
3849;SDS011;1940;51.052;13.678;2023-04-03T06:38:07;5.50;;;1.70;;
3849;SDS011;1940;51.052;13.678;2023-04-03T06:40:34;3.10;;;1.60;;
3849;SDS011;1940;51.052;13.678;2023-04-03T06:43:00;4.27;;;1.80;;
3849;SDS011;1940;51.052;13.678;2023-04-03T06:45:26;4.93;;;2.00;;
3849;SDS011;1940;51.052;13.678;2023-04-03T06:47:52;3.50;;;1.67;;
3849;SDS011;1940;51.052;13.678;2023-04-03T06:50:18;4.10;;;1.60;;
3849;SDS011;1940;51.052;13.678;2023-04-03T06:52:44;2.83;;;1.87;;
3849;SDS011;1940;51.052;13.678;2023-04-03T06:55:10;11.10;;;2.60;;
3849;SDS011;1940;51.052;13.678;2023-04-03T06:57:36;2.53;;;1.67;;
3849;SDS011;1940;51.052;13.678;2023-04-03T07:00:02;2.60;;;1.67;;
3849;SDS011;1940;51.052;13.678;2023-04-03T07:02:30;4.80;;;2.07;;
3849;SDS011;1940;51.052;13.678;2023-04-03T07:04:55;4.60;;;1.87;;
3849;SDS011;1940;51.052;13.678;2023-04-03T07:07:21;2.60;;;1.60;;
3849;SDS011;1940;51.052;13.678;2023-04-03T07:09:47;4.27;;;1.90;;
3849;SDS011;1940;51.052;13.678;2023-04-03T07:12:13;3.97;;;2.03;;
3849;SDS011;1940;51.052;13.678;2023-04-03T07:14:38;2.70;;;1.70;;
3849;SDS011;1940;51.052;13.678;2023-04-03T07:17:04;2.87;;;1.97;;
3849;SDS011;1940;51.052;13.678;2023-04-03T07:19:30;5.03;;;2.13;;
3849;SDS011;1940;51.052;13.678;2023-04-03T07:21:56;4.57;;;2.10;;
3849;SDS011;1940;51.052;13.678;2023-04-03T07:24:21;5.27;;;2.10;;
3849;SDS011;1940;51.052;13.678;2023-04-03T07:26:50;4.10;;;2.00;;
3849;SDS011;1940;51.052;13.678;2023-04-03T07:29:16;4.00;;;2.13;;
3849;SDS011;1940;51.052;13.678;2023-04-03T07:31:42;3.73;;;2.00;;
3849;SDS011;1940;51.052;13.678;2023-04-03T07:34:09;3.73;;;2.20;;
3849;SDS011;1940;51.052;13.678;2023-04-03T07:36:35;4.00;;;2.03;;
3849;SDS011;1940;51.052;13.678;2023-04-03T07:39:01;6.47;;;2.07;;
3849;SDS011;1940;51.052;13.678;2023-04-03T07:41:27;3.60;;;1.90;;
3849;SDS011;1940;51.052;13.678;2023-04-03T07:43:53;3.70;;;2.57;;
3849;SDS011;1940;51.052;13.678;2023-04-03T07:46:19;3.00;;;2.20;;
3849;SDS011;1940;51.052;13.678;2023-04-03T07:48:45;8.47;;;2.00;;
3849;SDS011;1940;51.052;13.678;2023-04-03T07:51:11;5.73;;;2.23;;
3849;SDS011;1940;51.052;13.678;2023-04-03T07:53:37;2.90;;;2.10;;
3849;SDS011;1940;51.052;13.678;2023-04-03T07:56:03;6.67;;;2.20;;
3849;SDS011;1940;51.052;13.678;2023-04-03T07:58:29;3.43;;;1.83;;
3849;SDS011;1940;51.052;13.678;2023-04-03T08:00:54;2.60;;;1.93;;
3849;SDS011;1940;51.052;13.678;2023-04-03T08:03:21;8.93;;;2.33;;
3849;SDS011;1940;51.052;13.678;2023-04-03T08:05:47;4.67;;;2.30;;
3849;SDS011;1940;51.052;13.678;2023-04-03T08:08:15;5.53;;;2.47;;
3849;SDS011;1940;51.052;13.678;2023-04-03T08:10:43;4.53;;;2.80;;
3849;SDS011;1940;51.052;13.678;2023-04-03T08:13:09;3.13;;;2.00;;
3849;SDS011;1940;51.052;13.678;2023-04-03T08:15:35;5.60;;;2.20;;
3849;SDS011;1940;51.052;13.678;2023-04-03T08:18:01;5.37;;;2.30;;
3849;SDS011;1940;51.052;13.678;2023-04-03T08:20:27;4.47;;;2.17;;
3849;SDS011;1940;51.052;13.678;2023-04-03T08:22:53;5.17;;;2.30;;
3849;SDS011;1940;51.052;13.678;2023-04-03T08:25:19;3.83;;;2.07;;
3849;SDS011;1940;51.052;13.678;2023-04-03T08:27:45;6.13;;;2.63;;
3849;SDS011;1940;51.052;13.678;2023-04-03T08:30:11;2.50;;;1.90;;
3849;SDS011;1940;51.052;13.678;2023-04-03T08:32:37;7.50;;;3.07;;
3849;SDS011;1940;51.052;13.678;2023-04-03T08:35:03;4.07;;;2.20;;
3849;SDS011;1940;51.052;13.678;2023-04-03T08:37:29;3.93;;;2.13;;
3849;SDS011;1940;51.052;13.678;2023-04-03T08:39:55;5.30;;;2.07;;
3849;SDS011;1940;51.052;13.678;2023-04-03T08:42:30;2.20;;;2.00;;
3849;SDS011;1940;51.052;13.678;2023-04-03T08:45:19;4.47;;;1.93;;
3849;SDS011;1940;51.052;13.678;2023-04-03T08:50:38;5.37;;;2.07;;
3849;SDS011;1940;51.052;13.678;2023-04-03T08:53:06;3.37;;;1.87;;
3849;SDS011;1940;51.052;13.678;2023-04-03T08:55:57;5.50;;;2.27;;
3849;SDS011;1940;51.052;13.678;2023-04-03T08:58:28;9.10;;;2.03;;
3849;SDS011;1940;51.052;13.678;2023-04-03T09:01:07;4.60;;;2.37;;
3849;SDS011;1940;51.052;13.678;2023-04-03T09:03:52;4.20;;;1.70;;
3849;SDS011;1940;51.052;13.678;2023-04-03T09:06:20;2.13;;;1.70;;
3849;SDS011;1940;51.052;13.678;2023-04-03T09:08:54;2.50;;;1.90;;
3849;SDS011;1940;51.052;13.678;2023-04-03T09:14:23;2.83;;;1.73;;
3849;SDS011;1940;51.052;13.678;2023-04-03T09:16:59;5.87;;;1.90;;
3849;SDS011;1940;51.052;13.678;2023-04-03T09:21:57;2.07;;;1.87;;
3849;SDS011;1940;51.052;13.678;2023-04-03T09:24:45;3.20;;;1.60;;
3849;SDS011;1940;51.052;13.678;2023-04-03T09:27:15;5.23;;;1.67;;
3849;SDS011;1940;51.052;13.678;2023-04-03T09:29:41;2.20;;;1.40;;
3849;SDS011;1940;51.052;13.678;2023-04-03T09:34:57;3.07;;;1.53;;
3849;SDS011;1940;51.052;13.678;2023-04-03T09:37:34;2.77;;;1.83;;
3849;SDS011;1940;51.052;13.678;2023-04-03T09:40:02;3.00;;;1.80;;
3849;SDS011;1940;51.052;13.678;2023-04-03T09:42:29;3.40;;;1.77;;
3849;SDS011;1940;51.052;13.678;2023-04-03T09:44:57;5.30;;;2.30;;
3849;SDS011;1940;51.052;13.678;2023-04-03T09:47:28;4.77;;;1.97;;
3849;SDS011;1940;51.052;13.678;2023-04-03T09:52:39;1.60;;;1.20;;
3849;SDS011;1940;51.052;13.678;2023-04-03T09:55:16;3.63;;;1.47;;
3849;SDS011;1940;51.052;13.678;2023-04-03T09:57:43;4.00;;;1.33;;
3849;SDS011;1940;51.052;13.678;2023-04-03T10:00:20;2.60;;;1.37;;
3849;SDS011;1940;51.052;13.678;2023-04-03T10:02:51;4.23;;;1.60;;
3849;SDS011;1940;51.052;13.678;2023-04-03T10:05:28;2.80;;;1.70;;
3849;SDS011;1940;51.052;13.678;2023-04-03T10:10:41;3.33;;;2.23;;
3849;SDS011;1940;51.052;13.678;2023-04-03T10:13:19;3.63;;;1.80;;
3849;SDS011;1940;51.052;13.678;2023-04-03T10:15:50;4.27;;;1.57;;
3849;SDS011;1940;51.052;13.678;2023-04-03T10:18:40;3.30;;;1.50;;
3849;SDS011;1940;51.052;13.678;2023-04-03T10:21:14;3.33;;;1.60;;
3849;SDS011;1940;51.052;13.678;2023-04-03T10:23:49;3.93;;;1.37;;
3849;SDS011;1940;51.052;13.678;2023-04-03T10:26:26;4.40;;;1.27;;
3849;SDS011;1940;51.052;13.678;2023-04-03T10:34:45;2.00;;;1.50;;
3849;SDS011;1940;51.052;13.678;2023-04-03T10:39:57;3.20;;;1.57;;
3849;SDS011;1940;51.052;13.678;2023-04-03T10:42:39;6.60;;;1.60;;
3849;SDS011;1940;51.052;13.678;2023-04-03T10:45:40;4.30;;;1.60;;
3849;SDS011;1940;51.052;13.678;2023-04-03T10:56:40;3.87;;;1.43;;
3849;SDS011;1940;51.052;13.678;2023-04-03T11:02:11;1.67;;;1.30;;
3849;SDS011;1940;51.052;13.678;2023-04-03T11:04:55;3.63;;;1.17;;
3849;SDS011;1940;51.052;13.678;2023-04-03T11:07:28;2.00;;;1.07;;
3849;SDS011;1940;51.052;13.678;2023-04-03T11:12:46;2.50;;;1.10;;
3849;SDS011;1940;51.052;13.678;2023-04-03T11:15:26;1.10;;;1.00;;
3849;SDS011;1940;51.052;13.678;2023-04-03T11:17:55;3.43;;;1.13;;
3849;SDS011;1940;51.052;13.678;2023-04-03T11:20:30;1.80;;;1.30;;
3849;SDS011;1940;51.052;13.678;2023-04-03T11:23:13;2.07;;;1.10;;
3849;SDS011;1940;51.052;13.678;2023-04-03T11:25:51;2.47;;;1.27;;
3849;SDS011;1940;51.052;13.678;2023-04-03T11:28:21;1.73;;;1.10;;
3849;SDS011;1940;51.052;13.678;2023-04-03T11:34:06;2.20;;;1.10;;
3849;SDS011;1940;51.052;13.678;2023-04-03T11:36:54;4.60;;;1.07;;
3849;SDS011;1940;51.052;13.678;2023-04-03T11:39:24;1.67;;;1.40;;
3849;SDS011;1940;51.052;13.678;2023-04-03T11:41:53;1.33;;;1.23;;
3849;SDS011;1940;51.052;13.678;2023-04-03T11:44:31;2.67;;;1.10;;
3849;SDS011;1940;51.052;13.678;2023-04-03T11:47:02;3.30;;;1.40;;
3849;SDS011;1940;51.052;13.678;2023-04-03T12:05:50;2.40;;;1.20;;
3849;SDS011;1940;51.052;13.678;2023-04-03T12:16:04;2.13;;;1.20;;
3849;SDS011;1940;51.052;13.678;2023-04-03T12:21:24;3.00;;;1.23;;
3849;SDS011;1940;51.052;13.678;2023-04-03T12:26:45;2.50;;;1.17;;
3849;SDS011;1940;51.052;13.678;2023-04-03T12:34:49;2.63;;;1.43;;
3849;SDS011;1940;51.052;13.678;2023-04-03T12:40:20;1.63;;;1.40;;
3849;SDS011;1940;51.052;13.678;2023-04-03T12:46:19;2.60;;;1.40;;
3849;SDS011;1940;51.052;13.678;2023-04-03T12:48:57;3.40;;;1.40;;
3849;SDS011;1940;51.052;13.678;2023-04-03T12:51:39;1.83;;;1.20;;
3849;SDS011;1940;51.052;13.678;2023-04-03T12:54:13;3.00;;;1.53;;
3849;SDS011;1940;51.052;13.678;2023-04-03T12:56:46;2.23;;;1.30;;
3849;SDS011;1940;51.052;13.678;2023-04-03T12:59:19;3.43;;;1.40;;
3849;SDS011;1940;51.052;13.678;2023-04-03T13:01:59;5.60;;;1.40;;
3849;SDS011;1940;51.052;13.678;2023-04-03T13:04:29;1.57;;;1.30;;
3849;SDS011;1940;51.052;13.678;2023-04-03T13:06:56;1.33;;;1.23;;
3849;SDS011;1940;51.052;13.678;2023-04-03T13:12:10;1.93;;;1.33;;
3849;SDS011;1940;51.052;13.678;2023-04-03T13:14:37;3.77;;;1.43;;
3849;SDS011;1940;51.052;13.678;2023-04-03T13:17:04;2.33;;;1.40;;
3849;SDS011;1940;51.052;13.678;2023-04-03T13:19:36;2.40;;;1.37;;
3849;SDS011;1940;51.052;13.678;2023-04-03T13:22:04;5.30;;;1.30;;
3849;SDS011;1940;51.052;13.678;2023-04-03T13:24:32;1.80;;;1.50;;
3849;SDS011;1940;51.052;13.678;2023-04-03T13:27:01;1.70;;;1.50;;
3849;SDS011;1940;51.052;13.678;2023-04-03T13:29:29;2.50;;;1.20;;
3849;SDS011;1940;51.052;13.678;2023-04-03T13:32:00;3.33;;;1.57;;
3849;SDS011;1940;51.052;13.678;2023-04-03T13:34:28;1.63;;;1.13;;
3849;SDS011;1940;51.052;13.678;2023-04-03T13:37:00;2.40;;;1.47;;
3849;SDS011;1940;51.052;13.678;2023-04-03T13:39:29;3.30;;;1.23;;
3849;SDS011;1940;51.052;13.678;2023-04-03T13:41:57;1.43;;;1.10;;
3849;SDS011;1940;51.052;13.678;2023-04-03T13:44:30;1.90;;;1.17;;
3849;SDS011;1940;51.052;13.678;2023-04-03T13:47:00;2.13;;;1.30;;
3849;SDS011;1940;51.052;13.678;2023-04-03T13:50:00;1.70;;;1.50;;
3849;SDS011;1940;51.052;13.678;2023-04-03T13:52:51;3.20;;;1.60;;
3849;SDS011;1940;51.052;13.678;2023-04-03T13:55:25;1.37;;;1.27;;
3849;SDS011;1940;51.052;13.678;2023-04-03T13:57:58;1.33;;;1.23;;
3849;SDS011;1940;51.052;13.678;2023-04-03T14:00:37;5.00;;;1.40;;
3849;SDS011;1940;51.052;13.678;2023-04-03T14:03:13;1.50;;;1.20;;
3849;SDS011;1940;51.052;13.678;2023-04-03T14:05:51;2.03;;;1.30;;
3849;SDS011;1940;51.052;13.678;2023-04-03T14:08:17;3.13;;;1.67;;
3849;SDS011;1940;51.052;13.678;2023-04-03T14:10:43;1.47;;;1.37;;
3849;SDS011;1940;51.052;13.678;2023-04-03T14:13:13;2.80;;;1.63;;
3849;SDS011;1940;51.052;13.678;2023-04-03T14:15:40;5.80;;;1.30;;
3849;SDS011;1940;51.052;13.678;2023-04-03T14:18:06;2.47;;;1.57;;
3849;SDS011;1940;51.052;13.678;2023-04-03T14:20:31;2.50;;;1.50;;
3849;SDS011;1940;51.052;13.678;2023-04-03T14:22:57;1.63;;;1.20;;
3849;SDS011;1940;51.052;13.678;2023-04-03T14:25:23;3.03;;;1.40;;
3849;SDS011;1940;51.052;13.678;2023-04-03T14:27:51;8.77;;;1.40;;
3849;SDS011;1940;51.052;13.678;2023-04-03T14:30:26;2.13;;;1.27;;
3849;SDS011;1940;51.052;13.678;2023-04-03T14:32:54;4.70;;;1.63;;
3849;SDS011;1940;51.052;13.678;2023-04-03T14:35:20;1.47;;;1.37;;
3849;SDS011;1940;51.052;13.678;2023-04-03T14:37:47;3.17;;;1.60;;
3849;SDS011;1940;51.052;13.678;2023-04-03T14:40:14;2.33;;;1.50;;
3849;SDS011;1940;51.052;13.678;2023-04-03T14:42:44;2.33;;;1.37;;
3849;SDS011;1940;51.052;13.678;2023-04-03T14:45:12;1.57;;;1.40;;
3849;SDS011;1940;51.052;13.678;2023-04-03T14:47:49;1.57;;;1.23;;
3849;SDS011;1940;51.052;13.678;2023-04-03T14:50:18;2.60;;;1.50;;
3849;SDS011;1940;51.052;13.678;2023-04-03T14:52:46;2.63;;;1.33;;
3849;SDS011;1940;51.052;13.678;2023-04-03T14:55:14;2.70;;;1.20;;
3849;SDS011;1940;51.052;13.678;2023-04-03T14:57:41;1.00;;;1.00;;
3849;SDS011;1940;51.052;13.678;2023-04-03T15:00:10;1.43;;;1.10;;
3849;SDS011;1940;51.052;13.678;2023-04-03T15:02:41;1.43;;;1.20;;
3849;SDS011;1940;51.052;13.678;2023-04-03T15:05:08;1.53;;;1.43;;
3849;SDS011;1940;51.052;13.678;2023-04-03T15:07:36;1.70;;;1.60;;
3849;SDS011;1940;51.052;13.678;2023-04-03T15:13:08;4.77;;;1.43;;
3849;SDS011;1940;51.052;13.678;2023-04-03T15:15:36;1.57;;;1.27;;
3849;SDS011;1940;51.052;13.678;2023-04-03T15:18:02;2.00;;;1.10;;
3849;SDS011;1940;51.052;13.678;2023-04-03T15:20:28;3.17;;;1.47;;
3849;SDS011;1940;51.052;13.678;2023-04-03T15:22:55;1.77;;;1.20;;
3849;SDS011;1940;51.052;13.678;2023-04-03T15:25:21;3.00;;;1.47;;
3849;SDS011;1940;51.052;13.678;2023-04-03T15:27:47;2.40;;;1.20;;
3849;SDS011;1940;51.052;13.678;2023-04-03T15:30:14;2.37;;;1.30;;
3849;SDS011;1940;51.052;13.678;2023-04-03T15:32:41;5.77;;;1.83;;
3849;SDS011;1940;51.052;13.678;2023-04-03T15:35:07;6.00;;;3.10;;
3849;SDS011;1940;51.052;13.678;2023-04-03T15:37:32;34.47;;;11.53;;
3849;SDS011;1940;51.052;13.678;2023-04-03T15:39:58;25.73;;;8.57;;
3849;SDS011;1940;51.052;13.678;2023-04-03T15:42:24;14.10;;;5.50;;
3849;SDS011;1940;51.052;13.678;2023-04-03T15:44:49;8.83;;;2.40;;
3849;SDS011;1940;51.052;13.678;2023-04-03T15:47:15;2.77;;;1.47;;
3849;SDS011;1940;51.052;13.678;2023-04-03T15:49:40;1.43;;;1.33;;
3849;SDS011;1940;51.052;13.678;2023-04-03T15:52:06;1.90;;;1.10;;
3849;SDS011;1940;51.052;13.678;2023-04-03T15:54:32;1.60;;;1.40;;
3849;SDS011;1940;51.052;13.678;2023-04-03T15:56:57;1.70;;;1.40;;
3849;SDS011;1940;51.052;13.678;2023-04-03T15:59:23;2.10;;;1.30;;
3849;SDS011;1940;51.052;13.678;2023-04-03T16:01:49;1.50;;;1.40;;
3849;SDS011;1940;51.052;13.678;2023-04-03T16:04:16;3.30;;;1.30;;
3849;SDS011;1940;51.052;13.678;2023-04-03T16:06:42;3.00;;;1.50;;
3849;SDS011;1940;51.052;13.678;2023-04-03T16:09:08;1.60;;;1.33;;
3849;SDS011;1940;51.052;13.678;2023-04-03T16:11:34;2.90;;;1.33;;
3849;SDS011;1940;51.052;13.678;2023-04-03T16:14:05;2.30;;;1.70;;
3849;SDS011;1940;51.052;13.678;2023-04-03T16:16:31;3.33;;;1.17;;
3849;SDS011;1940;51.052;13.678;2023-04-03T16:18:57;1.30;;;1.13;;
3849;SDS011;1940;51.052;13.678;2023-04-03T16:21:23;2.43;;;1.30;;
3849;SDS011;1940;51.052;13.678;2023-04-03T16:23:49;3.23;;;1.57;;
3849;SDS011;1940;51.052;13.678;2023-04-03T16:26:15;2.63;;;1.37;;
3849;SDS011;1940;51.052;13.678;2023-04-03T16:28:42;1.37;;;1.10;;
3849;SDS011;1940;51.052;13.678;2023-04-03T16:31:08;2.10;;;1.40;;
3849;SDS011;1940;51.052;13.678;2023-04-03T16:33:34;1.93;;;1.60;;
3849;SDS011;1940;51.052;13.678;2023-04-03T16:36:00;1.50;;;0.97;;
3849;SDS011;1940;51.052;13.678;2023-04-03T16:38:26;1.10;;;1.00;;
3849;SDS011;1940;51.052;13.678;2023-04-03T16:40:52;2.40;;;1.20;;
3849;SDS011;1940;51.052;13.678;2023-04-03T16:43:21;3.60;;;1.30;;
3849;SDS011;1940;51.052;13.678;2023-04-03T16:45:46;1.57;;;1.23;;